Weather at Hallowell Mills Cove Seaplane Base

Public forecast

Using degrees Celsius for public forecast. Weather courtesy of forecast.io.

Closest aviation weather report (METAR) to Hallowell Mills Cove Seaplane Base

Closest report is CFB Trenton, 17.7 nm (32.7 km) WNW.

2024/07/14 17:00 (retrieved 1 hour ago)

CYTR 141700Z 19005KT 15SM FEW025 SCT220 27/19 A2998 RMK CU1CC3 DENSITY ALT 2000FT SLP152

Closest aviation forecast (TAF) to Hallowell Mills Cove Seaplane Base

Closest forecast is CFB Trenton, 17.7 nm (32.7 km) WNW.

2024/07/14 18:42 (retrieved 0 seconds ago)

TAF TAF CYTR 141740Z 1418/1518 19005KT P6SM FEW025 SCT220 BECMG 1418/1420 22008G18KT FM142000 18008KT P6SM FEW025 BKN060 TEMPO 1420/1501 3SM -SHRA BR BKN020 OVC060 PROB30 1421/1424 VRB15G30KT 2SM TSRA BR BKN015 OVC040CB FM150800 25005KT 6SM BR BKN020 PROB30 1508/1518 1SM -DZ BR VV008 RMK NXT FCST BY 150000Z